Time;durP1;ratioP1;P1;durP2;ratioP2;P2;SDS_P1;SDS_P2;PMS_P1;PMS_P2;Temp;Humidity;BMP_temperature;BMP_pressure;BME280_temperature;BME280_humidity;BME280_pressure;Samples;Min_cycle;Max_cycle;Signal;HPM_P1;HPM_P2
2023/08/01 00:01:41;;;;;;;;;4.67;4.00;;;;;;;;5012318;28;50905;-58
2023/08/01 00:04:06;;;;;;;;;4.00;4.00;;;;;;;;5011580;28;51076;-58
2023/08/01 00:06:31;;;;;;;;;4.00;3.33;;;;;;;;5013032;28;51093;-58
2023/08/01 00:08:56;;;;;;;;;4.00;3.00;;;;;;;;5012919;28;50898;-58
2023/08/01 00:11:22;;;;;;;;;4.67;4.00;;;;;;;;5012459;28;51991;-59
2023/08/01 00:13:47;;;;;;;;;4.00;4.00;;;;;;;;5011646;28;51123;-58
2023/08/01 00:16:12;;;;;;;;;3.00;3.00;;;;;;;;5012676;28;51003;-58
2023/08/01 00:18:37;;;;;;;;;4.00;3.67;;;;;;;;5013186;28;50847;-57
2023/08/01 00:21:05;;;;;;;;;3.33;3.33;;;;;;;;5010514;28;51305;-58
2023/08/01 00:23:30;;;;;;;;;4.67;4.00;;;;;;;;5012238;28;51220;-58
2023/08/01 00:25:55;;;;;;;;;5.00;4.00;;;;;;;;5012507;28;50927;-58
2023/08/01 00:28:23;;;;;;;;;4.33;4.33;;;;;;;;5012794;28;50864;-58
2023/08/01 00:30:48;;;;;;;;;4.00;3.00;;;;;;;;5011903;28;51103;-58
2023/08/01 00:33:14;;;;;;;;;4.67;4.00;;;;;;;;5012428;28;52070;-58
2023/08/01 00:35:39;;;;;;;;;5.00;5.00;;;;;;;;5012308;28;51158;-58
2023/08/01 00:38:05;;;;;;;;;3.33;3.33;;;;;;;;5012948;28;51044;-59
2023/08/01 00:40:34;;;;;;;;;3.67;3.00;;;;;;;;5012217;28;51639;-59
2023/08/01 00:42:59;;;;;;;;;3.67;2.33;;;;;;;;5012337;28;50978;-58
2023/08/01 00:45:24;;;;;;;;;2.00;2.00;;;;;;;;5012283;28;50904;-58
2023/08/01 00:47:50;;;;;;;;;3.00;3.00;;;;;;;;5012304;28;51065;-58
2023/08/01 00:50:16;;;;;;;;;4.33;3.00;;;;;;;;5012010;28;51313;-58
2023/08/01 00:52:41;;;;;;;;;2.00;2.00;;;;;;;;5012434;28;50911;-58
2023/08/01 00:55:06;;;;;;;;;3.00;3.00;;;;;;;;5012402;28;51101;-58
2023/08/01 00:57:32;;;;;;;;;3.00;3.00;;;;;;;;5012480;28;51292;-58
2023/08/01 00:59:59;;;;;;;;;3.33;2.33;;;;;;;;5012010;28;51142;-58
2023/08/01 01:02:24;;;;;;;;;3.00;2.00;;;;;;;;5015050;28;51046;-58
2023/08/01 01:04:50;;;;;;;;;3.00;2.00;;;;;;;;5014585;28;50883;-58
2023/08/01 01:07:17;;;;;;;;;5.00;2.33;;;;;;;;5016403;28;50883;-58
2023/08/01 01:09:42;;;;;;;;;3.33;3.00;;;;;;;;5012394;28;51199;-59
2023/08/01 01:12:07;;;;;;;;;3.33;2.33;;;;;;;;4995974;28;51042;-58
2023/08/01 01:14:32;;;;;;;;;2.00;2.00;;;;;;;;5012039;28;51205;-58
2023/08/01 01:16:59;;;;;;;;;4.00;3.00;;;;;;;;5005840;28;50829;-58
2023/08/01 01:19:24;;;;;;;;;2.00;2.00;;;;;;;;4995388;28;51675;-58
2023/08/01 01:21:49;;;;;;;;;2.00;2.00;;;;;;;;4995481;28;51183;-58
2023/08/01 01:24:15;;;;;;;;;2.50;2.50;;;;;;;;4997116;28;51157;-58
2023/08/01 01:26:42;;;;;;;;;4.00;3.00;;;;;;;;5015478;28;51279;-58
2023/08/01 01:29:10;;;;;;;;;3.33;2.00;;;;;;;;5014923;28;51130;-58
2023/08/01 01:31:35;;;;;;;;;3.67;2.00;;;;;;;;5015025;28;50953;-58
2023/08/01 01:34:01;;;;;;;;;1.00;1.00;;;;;;;;5014998;28;50871;-58
2023/08/01 01:36:27;;;;;;;;;0.33;0.33;;;;;;;;5015383;28;50944;-59
2023/08/01 01:38:52;;;;;;;;;1.00;0.00;;;;;;;;5014794;28;51541;-58
2023/08/01 01:41:17;;;;;;;;;0.00;0.00;;;;;;;;5015395;28;50881;-58
2023/08/01 01:43:42;;;;;;;;;0.00;0.00;;;;;;;;5015403;28;51004;-58
2023/08/01 01:46:07;;;;;;;;;0.00;0.00;;;;;;;;5015104;28;51003;-58
2023/08/01 01:48:32;;;;;;;;;0.00;0.00;;;;;;;;5014681;28;51885;-58
2023/08/01 01:50:58;;;;;;;;;0.00;0.00;;;;;;;;5015139;28;50849;-58
2023/08/01 01:53:23;;;;;;;;;0.00;0.00;;;;;;;;5014889;28;51003;-58
2023/08/01 01:55:48;;;;;;;;;0.00;0.00;;;;;;;;5015281;28;51327;-58
2023/08/01 01:58:13;;;;;;;;;0.00;0.00;;;;;;;;5014558;28;51782;-58
2023/08/01 02:00:38;;;;;;;;;0.00;0.00;;;;;;;;5014684;28;51053;-58
2023/08/01 02:03:04;;;;;;;;;0.00;0.00;;;;;;;;5014973;28;50924;-58
2023/08/01 02:05:29;;;;;;;;;0.00;0.00;;;;;;;;5015234;28;51068;-58
2023/08/01 02:07:55;;;;;;;;;0.00;0.00;;;;;;;;5014332;28;51808;-58
2023/08/01 02:10:20;;;;;;;;;0.00;0.00;;;;;;;;5014632;28;51152;-58
2023/08/01 02:12:45;;;;;;;;;0.00;0.00;;;;;;;;5014699;28;51066;-58
2023/08/01 02:15:10;;;;;;;;;0.00;0.00;;;;;;;;5014911;28;51345;-58
2023/08/01 02:17:35;;;;;;;;;0.00;0.00;;;;;;;;5014070;28;51037;-58
2023/08/01 02:20:01;;;;;;;;;0.00;0.00;;;;;;;;5013990;28;50988;-58
2023/08/01 02:22:26;;;;;;;;;0.00;0.00;;;;;;;;5009917;28;51210;-58
2023/08/01 02:24:51;;;;;;;;;0.00;0.00;;;;;;;;5014578;28;51317;-58
2023/08/01 02:27:17;;;;;;;;;0.00;0.00;;;;;;;;5014262;28;50996;-58
2023/08/01 02:29:42;;;;;;;;;0.00;0.00;;;;;;;;5014495;28;51176;-58
2023/08/01 02:32:07;;;;;;;;;0.00;0.00;;;;;;;;5014016;28;50948;-58
2023/08/01 02:34:32;;;;;;;;;0.67;0.67;;;;;;;;5014752;28;51043;-58
2023/08/01 02:36:58;;;;;;;;;2.00;2.00;;;;;;;;5013876;28;52102;-58
2023/08/01 02:39:23;;;;;;;;;0.33;0.33;;;;;;;;5014225;28;50997;-58
2023/08/01 02:41:48;;;;;;;;;0.00;0.00;;;;;;;;5012881;28;51342;-58
2023/08/01 02:44:13;;;;;;;;;0.67;0.67;;;;;;;;5014462;28;50852;-58
2023/08/01 02:46:38;;;;;;;;;1.00;0.00;;;;;;;;5013635;28;51061;-58
2023/08/01 02:49:04;;;;;;;;;1.00;1.00;;;;;;;;5013975;28;51007;-58
2023/08/01 02:51:29;;;;;;;;;0.33;0.33;;;;;;;;5014103;28;50881;-59
2023/08/01 02:53:54;;;;;;;;;0.67;0.67;;;;;;;;5014132;28;50878;-58
2023/08/01 02:56:19;;;;;;;;;0.67;0.67;;;;;;;;5013595;28;51018;-58
2023/08/01 02:58:45;;;;;;;;;0.67;0.67;;;;;;;;5013629;28;50909;-59
2023/08/01 03:01:10;;;;;;;;;0.00;0.00;;;;;;;;5013733;28;50952;-58
2023/08/01 03:03:36;;;;;;;;;0.67;0.67;;;;;;;;5014123;28;50968;-58
2023/08/01 03:06:01;;;;;;;;;0.67;0.67;;;;;;;;5013580;28;52030;-58
2023/08/01 03:08:26;;;;;;;;;0.00;0.00;;;;;;;;5013601;28;50922;-58
2023/08/01 03:10:52;;;;;;;;;0.67;0.67;;;;;;;;5000962;28;51269;-57
2023/08/01 03:13:17;;;;;;;;;1.00;0.67;;;;;;;;4993993;28;51343;-57
2023/08/01 03:15:42;;;;;;;;;0.00;0.00;;;;;;;;4993500;28;52251;-57
2023/08/01 03:18:07;;;;;;;;;0.67;0.67;;;;;;;;5003611;28;51006;-59
2023/08/01 03:20:32;;;;;;;;;0.67;0.67;;;;;;;;4998431;28;52076;-58
2023/08/01 03:22:58;;;;;;;;;0.67;0.67;;;;;;;;5007667;28;51945;-57
2023/08/01 03:25:23;;;;;;;;;0.33;0.33;;;;;;;;5012844;28;50820;-59
2023/08/01 03:27:48;;;;;;;;;0.33;0.33;;;;;;;;5013401;28;50964;-59
2023/08/01 03:30:13;;;;;;;;;2.00;2.00;;;;;;;;5013111;28;51141;-58
2023/08/01 03:32:39;;;;;;;;;1.67;1.00;;;;;;;;5012842;28;51232;-58
2023/08/01 03:35:05;;;;;;;;;1.67;0.67;;;;;;;;5013036;28;51902;-58
2023/08/01 03:37:30;;;;;;;;;0.67;0.67;;;;;;;;5012839;28;51093;-58
2023/08/01 03:39:55;;;;;;;;;0.00;0.00;;;;;;;;5013245;28;51252;-57
2023/08/01 03:42:20;;;;;;;;;1.67;1.67;;;;;;;;5012651;28;50925;-57
2023/08/01 03:44:45;;;;;;;;;1.00;1.00;;;;;;;;5011585;28;51906;-58
2023/08/01 03:47:11;;;;;;;;;1.00;1.00;;;;;;;;5012485;28;51031;-59
2023/08/01 03:49:36;;;;;;;;;0.00;0.00;;;;;;;;5013390;28;50877;-58
2023/08/01 03:52:01;;;;;;;;;0.67;0.67;;;;;;;;5012922;28;51045;-58
2023/08/01 03:54:26;;;;;;;;;0.67;0.67;;;;;;;;5011593;28;52171;-58
2023/08/01 03:56:51;;;;;;;;;0.33;0.33;;;;;;;;5012640;28;50938;-57
2023/08/01 03:59:17;;;;;;;;;0.67;0.67;;;;;;;;5013127;28;51085;-57
2023/08/01 04:01:42;;;;;;;;;0.67;0.67;;;;;;;;5012458;28;51000;-57
2023/08/01 04:04:11;;;;;;;;;1.67;0.67;;;;;;;;5012541;28;52134;-57
2023/08/01 04:06:36;;;;;;;;;3.67;2.00;;;;;;;;5012531;28;50877;-57
2023/08/01 04:09:01;;;;;;;;;0.67;0.67;;;;;;;;5003060;28;51050;-57
2023/08/01 04:11:30;;;;;;;;;1.00;1.00;;;;;;;;4993189;28;51274;-57
2023/08/01 04:13:55;;;;;;;;;2.00;2.00;;;;;;;;4992812;28;51298;-57
2023/08/01 04:16:21;;;;;;;;;2.00;2.00;;;;;;;;4992648;28;51128;-57
2023/08/01 04:18:46;;;;;;;;;0.67;0.67;;;;;;;;4992889;28;51404;-57
2023/08/01 04:21:12;;;;;;;;;1.67;1.67;;;;;;;;5004085;28;52219;-57
2023/08/01 04:23:37;;;;;;;;;2.00;2.00;;;;;;;;5007119;28;51141;-57
2023/08/01 04:26:05;;;;;;;;;2.00;2.00;;;;;;;;5012767;28;51011;-57
2023/08/01 04:28:31;;;;;;;;;2.00;1.33;;;;;;;;5013069;28;51052;-57
2023/08/01 04:30:56;;;;;;;;;2.00;2.00;;;;;;;;5012264;28;51127;-58
2023/08/01 04:33:21;;;;;;;;;1.33;1.33;;;;;;;;5012176;28;51584;-58
2023/08/01 04:35:46;;;;;;;;;1.67;1.67;;;;;;;;5012857;28;50972;-58
2023/08/01 04:38:11;;;;;;;;;2.00;2.00;;;;;;;;5015844;28;51146;-57
2023/08/01 04:40:37;;;;;;;;;2.00;2.00;;;;;;;;5015869;28;51248;-58
2023/08/01 04:43:02;;;;;;;;;2.67;1.67;;;;;;;;5015543;28;51107;-58
2023/08/01 04:45:30;;;;;;;;;1.67;1.67;;;;;;;;5015534;28;50953;-57
2023/08/01 04:47:55;;;;;;;;;2.00;2.00;;;;;;;;5015703;28;50968;-58
2023/08/01 04:50:20;;;;;;;;;1.67;1.67;;;;;;;;5015823;28;51369;-57
2023/08/01 04:52:45;;;;;;;;;2.33;2.33;;;;;;;;5015334;28;51843;-57
2023/08/01 04:55:10;;;;;;;;;1.33;1.33;;;;;;;;5015639;28;51063;-57
2023/08/01 04:57:36;;;;;;;;;3.00;3.00;;;;;;;;5016002;28;50945;-57
2023/08/01 05:00:01;;;;;;;;;2.67;2.67;;;;;;;;5016026;28;51315;-57
2023/08/01 05:02:26;;;;;;;;;3.00;3.00;;;;;;;;5015642;28;51008;-57
2023/08/01 05:04:52;;;;;;;;;3.67;3.67;;;;;;;;5015576;28;51005;-57
2023/08/01 05:07:17;;;;;;;;;3.00;3.00;;;;;;;;5015848;28;51008;-57
2023/08/01 05:09:42;;;;;;;;;1.33;1.33;;;;;;;;5015505;28;51086;-57
2023/08/01 05:12:08;;;;;;;;;2.00;2.00;;;;;;;;5015437;28;51087;-57
2023/08/01 05:14:34;;;;;;;;;2.67;2.00;;;;;;;;5015155;28;50968;-58
2023/08/01 05:16:59;;;;;;;;;4.00;3.00;;;;;;;;5015362;28;50888;-57
2023/08/01 05:19:24;;;;;;;;;3.33;3.33;;;;;;;;5015224;28;51217;-58
2023/08/01 05:21:49;;;;;;;;;3.33;3.33;;;;;;;;5015351;28;50971;-57
2023/08/01 05:24:15;;;;;;;;;3.00;3.00;;;;;;;;5014920;28;51095;-58
2023/08/01 05:26:40;;;;;;;;;2.67;2.67;;;;;;;;5015506;28;50983;-58
2023/08/01 05:29:05;;;;;;;;;2.00;2.00;;;;;;;;5015395;28;51134;-57
2023/08/01 05:31:30;;;;;;;;;2.00;2.00;;;;;;;;5014835;28;51765;-58
2023/08/01 05:33:56;;;;;;;;;3.33;3.00;;;;;;;;5014662;28;51145;-58
2023/08/01 05:36:21;;;;;;;;;2.00;2.00;;;;;;;;5015215;28;50961;-58
2023/08/01 05:38:46;;;;;;;;;1.67;1.67;;;;;;;;5015317;28;51067;-57
2023/08/01 05:41:11;;;;;;;;;4.00;3.00;;;;;;;;5014880;28;51974;-58
2023/08/01 05:43:36;;;;;;;;;3.67;3.00;;;;;;;;5014586;28;51149;-58
2023/08/01 05:46:02;;;;;;;;;3.00;2.00;;;;;;;;5014699;28;50995;-57
2023/08/01 05:48:27;;;;;;;;;0.00;0.00;;;;;;;;5014651;28;51289;-57
2023/08/01 05:50:55;;;;;;;;;3.67;2.67;;;;;;;;5014852;28;51925;-57
2023/08/01 05:53:20;;;;;;;;;2.00;2.00;;;;;;;;5014747;28;50958;-57
2023/08/01 05:55:45;;;;;;;;;3.33;3.33;;;;;;;;5014774;28;51355;-58
2023/08/01 05:58:11;;;;;;;;;3.67;1.67;;;;;;;;5014779;28;50927;-58
2023/08/01 06:00:36;;;;;;;;;2.00;2.00;;;;;;;;5011467;28;52598;-58
2023/08/01 06:03:01;;;;;;;;;3.67;2.67;;;;;;;;5014145;28;51028;-57
2023/08/01 06:05:26;;;;;;;;;3.00;2.67;;;;;;;;5007553;28;51175;-57
2023/08/01 06:07:51;;;;;;;;;2.67;1.67;;;;;;;;5007360;28;51066;-57
2023/08/01 06:10:17;;;;;;;;;2.67;2.67;;;;;;;;5007002;28;51849;-59
2023/08/01 06:12:42;;;;;;;;;2.33;2.33;;;;;;;;5008375;28;51107;-58
2023/08/01 06:15:07;;;;;;;;;2.67;2.33;;;;;;;;4994993;28;50976;-58
2023/08/01 06:17:32;;;;;;;;;1.67;1.67;;;;;;;;4997462;28;51318;-58
2023/08/01 06:19:58;;;;;;;;;2.33;1.67;;;;;;;;5014135;28;53039;-58
2023/08/01 06:22:23;;;;;;;;;2.00;2.00;;;;;;;;5014135;28;51118;-59
2023/08/01 06:24:48;;;;;;;;;3.67;3.00;;;;;;;;5014634;28;50924;-58
2023/08/01 06:27:15;;;;;;;;;2.33;2.33;;;;;;;;5014563;28;50904;-57
2023/08/01 06:29:40;;;;;;;;;2.33;1.67;;;;;;;;5014224;28;52883;-57
2023/08/01 06:32:05;;;;;;;;;3.00;3.00;;;;;;;;5013621;28;50944;-57
2023/08/01 06:34:30;;;;;;;;;3.00;2.00;;;;;;;;5014455;28;51002;-59
2023/08/01 06:36:56;;;;;;;;;3.00;2.00;;;;;;;;5012836;28;51302;-59
2023/08/01 06:39:21;;;;;;;;;3.33;3.00;;;;;;;;5013861;28;51771;-59
2023/08/01 06:41:46;;;;;;;;;5.00;4.00;;;;;;;;5013932;28;50836;-57
2023/08/01 06:44:11;;;;;;;;;3.00;2.33;;;;;;;;5014257;28;50878;-58
2023/08/01 06:46:36;;;;;;;;;4.00;4.00;;;;;;;;5013781;28;50884;-59
2023/08/01 06:49:02;;;;;;;;;3.00;2.67;;;;;;;;5013554;28;51153;-59
2023/08/01 06:51:27;;;;;;;;;2.67;2.67;;;;;;;;5013886;28;50865;-59
2023/08/01 06:53:52;;;;;;;;;3.00;2.67;;;;;;;;5013725;28;51205;-59
2023/08/01 06:56:18;;;;;;;;;4.00;3.33;;;;;;;;5013984;28;51042;-60
2023/08/01 06:58:43;;;;;;;;;3.00;3.00;;;;;;;;5012485;28;51081;-59
2023/08/01 07:01:08;;;;;;;;;2.00;2.00;;;;;;;;5013618;28;51080;-59
2023/08/01 07:03:33;;;;;;;;;2.33;2.33;;;;;;;;5013360;28;51184;-59
2023/08/01 07:05:58;;;;;;;;;3.00;2.33;;;;;;;;5013772;28;51251;-60
2023/08/01 07:08:24;;;;;;;;;3.33;2.67;;;;;;;;5012760;28;50979;-60
2023/08/01 07:10:49;;;;;;;;;2.33;2.33;;;;;;;;5013149;28;51054;-59
2023/08/01 07:13:15;;;;;;;;;3.33;3.33;;;;;;;;5013139;28;51168;-59
2023/08/01 07:15:41;;;;;;;;;2.33;2.33;;;;;;;;5011824;28;51109;-59
2023/08/01 07:18:06;;;;;;;;;3.67;2.00;;;;;;;;5012842;28;51150;-59
2023/08/01 07:20:31;;;;;;;;;2.33;2.33;;;;;;;;5013294;28;51069;-59
2023/08/01 07:22:56;;;;;;;;;3.67;3.67;;;;;;;;5013069;28;51972;-59
2023/08/01 07:25:22;;;;;;;;;3.33;3.00;;;;;;;;5013368;28;51159;-59
2023/08/01 07:27:47;;;;;;;;;6.67;3.67;;;;;;;;5013030;28;51048;-59
2023/08/01 07:30:12;;;;;;;;;3.00;3.00;;;;;;;;5013322;28;51044;-61
2023/08/01 07:32:38;;;;;;;;;3.00;3.00;;;;;;;;5012812;28;51049;-59
2023/08/01 07:35:04;;;;;;;;;5.67;4.67;;;;;;;;5013415;28;51019;-60
2023/08/01 07:37:29;;;;;;;;;5.67;4.00;;;;;;;;5012725;28;51995;-59
2023/08/01 07:39:55;;;;;;;;;8.00;6.00;;;;;;;;5013148;28;50853;-59
2023/08/01 07:42:20;;;;;;;;;3.00;3.00;;;;;;;;5013292;28;51075;-59
2023/08/01 07:44:45;;;;;;;;;4.00;3.67;;;;;;;;5013040;28;50857;-59
2023/08/01 07:47:11;;;;;;;;;4.67;4.67;;;;;;;;5012338;28;52266;-61
2023/08/01 07:49:36;;;;;;;;;4.67;4.00;;;;;;;;5013065;28;50822;-58
2023/08/01 07:52:01;;;;;;;;;2.67;2.67;;;;;;;;5012739;28;51129;-59
2023/08/01 07:54:26;;;;;;;;;4.00;3.00;;;;;;;;5013155;28;50913;-59
2023/08/01 07:56:51;;;;;;;;;2.67;2.00;;;;;;;;5012610;28;51917;-59
2023/08/01 07:59:17;;;;;;;;;4.33;3.67;;;;;;;;5012887;28;50837;-59
2023/08/01 08:01:42;;;;;;;;;7.67;5.00;;;;;;;;5012628;28;50805;-59
2023/08/01 08:04:07;;;;;;;;;5.00;4.00;;;;;;;;5012984;28;50832;-58
2023/08/01 08:06:32;;;;;;;;;5.00;5.00;;;;;;;;5012290;28;51177;-59
2023/08/01 08:08:58;;;;;;;;;6.67;5.67;;;;;;;;5003722;28;50801;-59
2023/08/01 08:11:23;;;;;;;;;2.00;2.00;;;;;;;;4992720;28;51101;-58
2023/08/01 08:13:48;;;;;;;;;5.67;4.33;;;;;;;;4995239;28;50846;-58
2023/08/01 08:16:13;;;;;;;;;7.00;6.00;;;;;;;;5010560;28;51297;-58
2023/08/01 08:18:39;;;;;;;;;4.00;3.33;;;;;;;;5012551;28;51135;-58
2023/08/01 08:21:04;;;;;;;;;3.00;3.00;;;;;;;;5012527;28;51349;-57
2023/08/01 08:23:29;;;;;;;;;4.67;4.00;;;;;;;;5012735;28;51052;-58
2023/08/01 08:25:54;;;;;;;;;4.67;4.00;;;;;;;;5012008;28;51991;-58
2023/08/01 08:28:30;;;;;;;;;3.00;3.00;;;;;;;;5012215;28;51050;-59
2023/08/01 08:30:55;;;;;;;;;5.33;4.33;;;;;;;;5011908;28;51493;-59
2023/08/01 08:33:21;;;;;;;;;3.33;3.33;;;;;;;;5012148;28;51415;-58
2023/08/01 08:35:46;;;;;;;;;3.00;3.00;;;;;;;;5011732;28;51761;-59
2023/08/01 08:38:11;;;;;;;;;4.00;4.00;;;;;;;;5012287;28;50960;-60
2023/08/01 08:40:41;;;;;;;;;4.00;4.00;;;;;;;;5012117;28;50944;-59
2023/08/01 08:43:06;;;;;;;;;7.33;7.33;;;;;;;;5012404;28;50842;-59
2023/08/01 08:45:34;;;;;;;;;3.00;3.00;;;;;;;;5011157;28;52021;-59
2023/08/01 08:48:00;;;;;;;;;4.00;2.00;;;;;;;;5011806;28;51108;-59
2023/08/01 08:50:26;;;;;;;;;3.00;3.00;;;;;;;;5010452;28;51085;-58
2023/08/01 08:52:52;;;;;;;;;7.67;5.33;;;;;;;;5012127;28;51165;-58
2023/08/01 08:55:21;;;;;;;;;3.00;3.00;;;;;;;;5011740;28;51991;-58
2023/08/01 08:57:50;;;;;;;;;3.33;3.33;;;;;;;;5011737;28;51091;-58
2023/08/01 09:00:15;;;;;;;;;4.33;3.33;;;;;;;;5011550;28;51098;-58
2023/08/01 09:02:41;;;;;;;;;4.00;4.00;;;;;;;;5011798;28;51226;-59
2023/08/01 09:05:06;;;;;;;;;4.33;4.00;;;;;;;;5011146;28;51967;-58
2023/08/01 09:07:33;;;;;;;;;5.33;4.00;;;;;;;;5010459;28;50911;-58
2023/08/01 09:09:58;;;;;;;;;4.00;3.33;;;;;;;;5011580;28;50946;-58
2023/08/01 09:12:24;;;;;;;;;5.00;4.00;;;;;;;;5011656;28;51005;-59
2023/08/01 09:14:50;;;;;;;;;3.67;3.33;;;;;;;;5011280;28;50927;-58
2023/08/01 09:17:18;;;;;;;;;3.33;3.33;;;;;;;;5011523;28;50991;-59
2023/08/01 09:19:43;;;;;;;;;4.00;3.67;;;;;;;;5011026;28;50953;-58
2023/08/01 09:22:12;;;;;;;;;8.00;7.33;;;;;;;;5012747;28;51378;-57
2023/08/01 09:24:37;;;;;;;;;3.00;3.00;;;;;;;;5014537;28;52965;-58
2023/08/01 09:27:04;;;;;;;;;4.67;4.67;;;;;;;;5014770;28;51143;-58
2023/08/01 09:29:31;;;;;;;;;1.00;1.00;;;;;;;;5015051;28;51001;-58
2023/08/01 09:31:56;;;;;;;;;2.67;2.33;;;;;;;;5014543;28;51204;-58
2023/08/01 09:34:22;;;;;;;;;2.67;2.33;;;;;;;;5014229;28;50992;-58
2023/08/01 09:36:48;;;;;;;;;4.00;3.00;;;;;;;;5014834;28;50833;-59
2023/08/01 09:39:17;;;;;;;;;5.33;5.33;;;;;;;;5014469;28;51220;-59
2023/08/01 09:41:42;;;;;;;;;2.00;1.00;;;;;;;;5014814;28;51379;-58
2023/08/01 09:44:11;;;;;;;;;2.00;1.00;;;;;;;;5014318;28;51915;-58
2023/08/01 09:46:36;;;;;;;;;5.00;4.00;;;;;;;;5013972;28;51046;-60
2023/08/01 09:49:09;;;;;;;;;3.00;3.00;;;;;;;;5014315;28;50995;-59
2023/08/01 09:51:45;;;;;;;;;3.00;3.00;;;;;;;;5014592;28;51209;-60
2023/08/01 09:54:11;;;;;;;;;2.33;2.33;;;;;;;;5013994;28;51944;-61
2023/08/01 09:56:36;;;;;;;;;3.33;3.00;;;;;;;;5014133;28;51193;-59
2023/08/01 09:59:01;;;;;;;;;3.00;3.00;;;;;;;;5014643;28;51081;-58
2023/08/01 10:01:27;;;;;;;;;2.00;2.00;;;;;;;;5014292;28;51256;-60
2023/08/01 10:03:53;;;;;;;;;3.00;3.00;;;;;;;;5014306;28;51860;-60
2023/08/01 10:06:20;;;;;;;;;3.33;2.67;;;;;;;;5014105;28;51224;-59
2023/08/01 10:08:45;;;;;;;;;4.00;4.00;;;;;;;;5014570;28;51075;-60
2023/08/01 10:11:12;;;;;;;;;3.00;3.00;;;;;;;;5014010;28;50902;-59
2023/08/01 10:13:38;;;;;;;;;3.33;3.33;;;;;;;;5013413;28;51033;-58
2023/08/01 10:16:03;;;;;;;;;3.00;2.67;;;;;;;;5008741;28;51200;-59
2023/08/01 10:18:29;;;;;;;;;5.67;5.67;;;;;;;;5005335;28;51020;-59
2023/08/01 10:20:55;;;;;;;;;4.33;4.00;;;;;;;;4994120;28;51141;-60
2023/08/01 10:23:20;;;;;;;;;3.33;3.00;;;;;;;;4993803;28;52299;-58
2023/08/01 10:25:46;;;;;;;;;5.00;5.00;;;;;;;;4993617;28;50891;-58
2023/08/01 10:28:12;;;;;;;;;7.00;7.00;;;;;;;;4993829;28;51047;-58
2023/08/01 10:30:37;;;;;;;;;3.33;3.00;;;;;;;;5008109;28;50904;-57
2023/08/01 10:33:02;;;;;;;;;4.67;4.67;;;;;;;;5011551;28;51054;-59
2023/08/01 10:35:33;;;;;;;;;5.67;5.67;;;;;;;;5012811;28;50987;-59
2023/08/01 10:38:05;;;;;;;;;3.67;3.67;;;;;;;;5013568;28;51065;-59
2023/08/01 10:40:48;;;;;;;;;4.00;3.00;;;;;;;;5013005;28;50985;-59
2023/08/01 10:43:23;;;;;;;;;5.67;4.67;;;;;;;;5013069;28;52091;-59
2023/08/01 10:45:48;;;;;;;;;4.33;3.33;;;;;;;;5012904;28;50976;-59
2023/08/01 10:48:14;;;;;;;;;3.67;3.67;;;;;;;;5012908;28;51146;-58
2023/08/01 10:50:39;;;;;;;;;5.00;4.00;;;;;;;;5013320;28;51071;-59
2023/08/01 10:53:05;;;;;;;;;5.67;5.00;;;;;;;;5012925;28;51719;-59
2023/08/01 10:55:40;;;;;;;;;5.00;5.00;;;;;;;;5013118;28;51134;-58
2023/08/01 10:58:05;;;;;;;;;4.00;4.00;;;;;;;;5013250;28;50912;-59
2023/08/01 11:00:31;;;;;;;;;4.33;4.33;;;;;;;;5013166;28;50875;-59
2023/08/01 11:02:56;;;;;;;;;3.67;3.67;;;;;;;;5012942;28;51065;-59
2023/08/01 11:05:23;;;;;;;;;4.33;4.33;;;;;;;;5013225;28;51087;-57
2023/08/01 11:07:55;;;;;;;;;5.00;5.00;;;;;;;;5012943;28;50930;-58
2023/08/01 11:10:21;;;;;;;;;6.33;6.00;;;;;;;;5001177;28;51161;-58
2023/08/01 11:12:46;;;;;;;;;5.00;4.00;;;;;;;;5011403;28;51872;-59
2023/08/01 11:15:13;;;;;;;;;3.00;3.00;;;;;;;;5012961;28;50920;-59
2023/08/01 11:17:39;;;;;;;;;4.00;3.00;;;;;;;;4999260;28;51148;-58
2023/08/01 11:20:05;;;;;;;;;4.00;4.00;;;;;;;;5012871;28;51255;-58
2023/08/01 11:22:30;;;;;;;;;3.00;3.00;;;;;;;;4997809;28;51587;-59
2023/08/01 11:24:56;;;;;;;;;4.00;3.00;;;;;;;;4993144;28;50827;-59
2023/08/01 11:27:21;;;;;;;;;4.00;4.00;;;;;;;;4993040;28;50832;-59
2023/08/01 11:29:46;;;;;;;;;3.67;3.67;;;;;;;;5000808;28;50916;-58
2023/08/01 11:32:12;;;;;;;;;3.33;3.33;;;;;;;;5012155;28;51187;-60
2023/08/01 11:34:43;;;;;;;;;4.00;4.00;;;;;;;;5011493;28;50967;-59
2023/08/01 11:37:08;;;;;;;;;3.00;3.00;;;;;;;;4997863;28;51139;-59
2023/08/01 11:39:33;;;;;;;;;6.00;4.00;;;;;;;;4991528;28;51102;-59
2023/08/01 11:42:00;;;;;;;;;3.00;2.00;;;;;;;;4992794;28;51003;-59
2023/08/01 11:44:25;;;;;;;;;3.00;3.00;;;;;;;;4990890;28;50891;-58
2023/08/01 11:46:51;;;;;;;;;4.00;3.67;;;;;;;;4992478;28;51024;-58
2023/08/01 11:49:16;;;;;;;;;2.00;2.00;;;;;;;;4993337;28;51058;-58
2023/08/01 11:51:42;;;;;;;;;6.33;5.67;;;;;;;;4992651;28;51214;-58
2023/08/01 11:54:09;;;;;;;;;4.00;3.00;;;;;;;;4992746;28;50920;-58
2023/08/01 11:56:35;;;;;;;;;26.50;24.00;;;;;;;;4992578;28;51097;-58
2023/08/01 11:59:07;;;;;;;;;4.00;3.33;;;;;;;;4992890;28;51334;-62
2023/08/01 12:01:37;;;;;;;;;3.67;3.00;;;;;;;;4992113;28;52405;-58
2023/08/01 12:04:03;;;;;;;;;4.33;4.33;;;;;;;;4992679;28;51045;-58
2023/08/01 12:06:31;;;;;;;;;3.67;3.67;;;;;;;;4992379;28;51019;-58
2023/08/01 12:09:05;;;;;;;;;1.00;1.00;;;;;;;;5001247;28;50937;-57
2023/08/01 12:11:30;;;;;;;;;3.67;3.00;;;;;;;;5011625;28;51074;-58
2023/08/01 12:14:09;;;;;;;;;3.67;3.67;;;;;;;;5012150;28;51109;-59
2023/08/01 12:16:34;;;;;;;;;3.00;2.67;;;;;;;;5008630;28;52282;-59
2023/08/01 12:19:00;;;;;;;;;3.33;3.33;;;;;;;;5012211;28;50944;-59
2023/08/01 12:21:25;;;;;;;;;4.00;3.00;;;;;;;;5011702;28;51892;-59
2023/08/01 12:23:50;;;;;;;;;3.00;3.00;;;;;;;;5012259;28;50910;-59
2023/08/01 12:26:15;;;;;;;;;3.67;3.00;;;;;;;;5012073;28;50920;-61
2023/08/01 12:28:40;;;;;;;;;3.00;3.00;;;;;;;;5012343;28;51024;-59
2023/08/01 12:31:06;;;;;;;;;3.00;2.33;;;;;;;;5011530;28;51823;-59
2023/08/01 12:33:32;;;;;;;;;3.67;3.00;;;;;;;;5011961;28;51010;-60
2023/08/01 12:35:57;;;;;;;;;3.00;2.67;;;;;;;;5011850;28;51130;-59
2023/08/01 12:38:22;;;;;;;;;5.33;4.00;;;;;;;;5012433;28;51189;-59
2023/08/01 12:40:48;;;;;;;;;3.00;3.00;;;;;;;;5011187;28;50962;-59
2023/08/01 12:43:13;;;;;;;;;3.00;3.00;;;;;;;;5011912;28;50923;-60
2023/08/01 12:45:39;;;;;;;;;4.00;4.00;;;;;;;;5011430;28;51125;-58
2023/08/01 12:48:04;;;;;;;;;3.33;3.33;;;;;;;;5000942;28;51087;-60
2023/08/01 12:50:29;;;;;;;;;3.33;3.33;;;;;;;;4991680;28;51906;-58
2023/08/01 12:52:54;;;;;;;;;3.67;3.00;;;;;;;;4991920;28;50887;-58
2023/08/01 12:55:20;;;;;;;;;4.67;3.67;;;;;;;;4992040;28;50886;-59
2023/08/01 12:57:45;;;;;;;;;4.00;3.67;;;;;;;;4994510;28;51080;-60
2023/08/01 13:00:10;;;;;;;;;5.00;4.00;;;;;;;;4994418;28;52039;-59
2023/08/01 13:02:36;;;;;;;;;3.00;3.00;;;;;;;;4995255;28;50961;-58
2023/08/01 13:05:02;;;;;;;;;4.00;3.00;;;;;;;;4994977;28;50936;-59
2023/08/01 13:07:27;;;;;;;;;3.00;3.00;;;;;;;;4997211;28;51361;-59
2023/08/01 13:09:53;;;;;;;;;2.00;2.00;;;;;;;;5014588;28;51415;-59
2023/08/01 13:12:18;;;;;;;;;3.00;3.00;;;;;;;;5014618;28;51031;-59
2023/08/01 13:14:43;;;;;;;;;3.67;3.33;;;;;;;;5013370;28;50940;-58
2023/08/01 13:17:08;;;;;;;;;3.00;3.00;;;;;;;;5014732;28;50918;-59
2023/08/01 13:19:34;;;;;;;;;4.33;4.00;;;;;;;;5014377;28;50922;-58
2023/08/01 13:21:59;;;;;;;;;3.00;3.00;;;;;;;;5014866;28;51006;-58
2023/08/01 13:24:24;;;;;;;;;1.00;1.00;;;;;;;;5014679;28;51240;-58
2023/08/01 13:26:49;;;;;;;;;3.00;3.00;;;;;;;;5014905;28;50926;-60
2023/08/01 13:29:14;;;;;;;;;4.00;4.00;;;;;;;;5014225;28;51205;-59
2023/08/01 13:31:39;;;;;;;;;4.33;4.00;;;;;;;;5013355;28;51046;-59
2023/08/01 13:34:05;;;;;;;;;5.00;5.00;;;;;;;;5014717;28;50951;-59
2023/08/01 13:36:30;;;;;;;;;3.33;3.33;;;;;;;;5015102;28;50888;-59
2023/08/01 13:38:55;;;;;;;;;4.00;3.00;;;;;;;;5014284;28;52008;-59
2023/08/01 13:41:20;;;;;;;;;3.00;2.00;;;;;;;;5014879;28;50920;-59
2023/08/01 13:43:45;;;;;;;;;3.00;3.00;;;;;;;;5014909;28;51401;-59
2023/08/01 13:46:15;;;;;;;;;4.00;3.00;;;;;;;;5014672;28;51151;-59
2023/08/01 13:48:41;;;;;;;;;3.00;2.67;;;;;;;;5014617;28;51082;-59
2023/08/01 13:51:06;;;;;;;;;5.33;5.33;;;;;;;;5014433;28;51057;-59
2023/08/01 13:53:31;;;;;;;;;3.67;3.67;;;;;;;;5014535;28;51123;-60
2023/08/01 13:55:56;;;;;;;;;4.00;3.00;;;;;;;;5014918;28;50897;-59
2023/08/01 13:58:22;;;;;;;;;4.67;4.00;;;;;;;;5011228;28;50970;-58
2023/08/01 14:00:47;;;;;;;;;3.33;3.00;;;;;;;;4993110;28;51095;-58
2023/08/01 14:03:12;;;;;;;;;3.00;2.33;;;;;;;;4993297;28;51117;-59
2023/08/01 14:05:37;;;;;;;;;3.33;3.00;;;;;;;;4994521;28;51035;-59
2023/08/01 14:08:02;;;;;;;;;3.00;2.33;;;;;;;;5011898;28;51015;-58
2023/08/01 14:10:28;;;;;;;;;3.00;2.67;;;;;;;;5014272;28;50979;-59
2023/08/01 14:12:53;;;;;;;;;2.67;2.33;;;;;;;;5014189;28;50809;-59
2023/08/01 14:15:18;;;;;;;;;3.33;3.33;;;;;;;;5014279;28;51030;-59
2023/08/01 14:17:43;;;;;;;;;3.33;3.33;;;;;;;;5010219;28;51874;-59
2023/08/01 14:20:09;;;;;;;;;1.33;1.33;;;;;;;;5005806;28;51032;-59
2023/08/01 14:22:34;;;;;;;;;1.00;0.00;;;;;;;;4994150;28;51201;-59
2023/08/01 14:24:59;;;;;;;;;3.67;2.67;;;;;;;;4994467;28;51006;-59
2023/08/01 14:27:24;;;;;;;;;3.00;2.67;;;;;;;;4993687;28;52091;-59
2023/08/01 14:29:50;;;;;;;;;3.33;3.00;;;;;;;;5000642;28;51007;-58
2023/08/01 14:32:17;;;;;;;;;4.00;3.00;;;;;;;;5013029;28;51104;-59
2023/08/01 14:34:43;;;;;;;;;4.67;2.00;;;;;;;;5014101;28;51055;-59